Time;durP1;ratioP1;P1;durP2;ratioP2;P2;SDS_P1;SDS_P2;PMS_P1;PMS_P2;Temp;Humidity;BMP_temperature;BMP_pressure;BME280_temperature;BME280_humidity;BME280_pressure;Samples;Min_cycle;Max_cycle;Signal;HPM_P1;HPM_P2
2021/06/21 00:01:56;;;;;;;10.07;3.95;;;;;;;18.03;93.34;96640.84;5005157;28;20489;-59
2021/06/21 00:04:21;;;;;;;5.35;3.53;;;;;;;17.65;93.37;96591.13;5023877;28;20030;-61
2021/06/21 00:06:47;;;;;;;4.90;3.92;;;;;;;17.99;92.56;96644.91;5023052;28;20148;-59
2021/06/21 00:09:12;;;;;;;6.82;3.83;;;;;;;18.05;92.26;96635.59;5023364;28;20025;-58
2021/06/21 00:11:38;;;;;;;7.72;3.78;;;;;;;17.97;92.91;96634.13;5022977;28;20064;-61
2021/06/21 00:14:03;;;;;;;5.20;3.78;;;;;;;17.92;93.37;96640.22;5023044;28;20037;-58
2021/06/21 00:16:30;;;;;;;4.32;3.92;;;;;;;17.50;93.06;96561.75;5023104;28;20052;-58
2021/06/21 00:18:55;;;;;;;8.05;4.63;;;;;;;17.99;94.32;96633.72;5023215;28;20034;-58
2021/06/21 00:21:21;;;;;;;4.80;3.97;;;;;;;17.70;93.36;96587.81;5004894;28;20030;-58
2021/06/21 00:23:47;;;;;;;6.78;3.67;;;;;;;17.93;94.57;96625.03;5023122;28;20030;-58
2021/06/21 00:26:12;;;;;;;9.43;3.90;;;;;;;17.55;94.54;96572.47;5022494;28;20135;-61
2021/06/21 00:28:38;;;;;;;7.55;4.05;;;;;;;17.72;95.24;96630.22;5022629;28;20030;-58
2021/06/21 00:31:04;;;;;;;5.32;3.58;;;;;;;17.66;95.15;96615.91;5022559;28;20054;-58
2021/06/21 00:33:29;;;;;;;11.15;3.97;;;;;;;17.73;95.08;96621.38;5005211;28;20048;-58
2021/06/21 00:35:55;;;;;;;6.50;3.28;;;;;;;17.78;95.09;96628.50;5023077;28;20303;-58
2021/06/21 00:38:20;;;;;;;6.57;3.50;;;;;;;17.84;94.51;96621.19;5005157;28;20152;-60
2021/06/21 00:40:46;;;;;;;6.15;3.90;;;;;;;17.92;93.90;96622.66;5022497;28;20120;-59
2021/06/21 00:43:12;;;;;;;4.05;3.17;;;;;;;17.95;92.32;96624.59;5004952;28;20042;-62
2021/06/21 00:45:37;;;;;;;6.30;4.28;;;;;;;17.57;93.83;96572.84;5022469;28;20030;-60
2021/06/21 00:48:03;;;;;;;7.03;3.95;;;;;;;17.85;95.22;96611.56;5023006;28;20037;-58
2021/06/21 00:50:29;;;;;;;8.18;3.80;;;;;;;17.90;94.63;96617.47;5022326;28;20065;-59
2021/06/21 00:52:58;;;;;;;5.32;4.20;;;;;;;17.95;94.27;96611.38;5004890;28;20504;-59
2021/06/21 00:55:25;;;;;;;8.25;3.80;;;;;;;17.91;94.15;96604.22;5006411;28;20061;-59
2021/06/21 00:57:51;;;;;;;6.32;3.55;;;;;;;17.86;95.36;96601.94;5008283;28;20034;-60
2021/06/21 01:00:22;;;;;;;5.43;3.83;;;;;;;17.97;94.67;96602.53;5025761;28;20103;-61
2021/06/21 01:02:47;;;;;;;4.25;3.55;;;;;;;17.85;95.01;96600.34;5026203;28;20046;-59
2021/06/21 01:05:16;;;;;;;3.63;3.22;;;;;;;17.50;94.65;96536.56;5007714;28;20034;-62
2021/06/21 01:07:42;;;;;;;6.72;4.13;;;;;;;17.95;93.58;96614.19;5007885;28;20267;-60
2021/06/21 01:10:09;;;;;;;6.68;3.50;;;;;;;17.97;93.49;96610.94;5025414;28;20029;-60
2021/06/21 01:12:47;;;;;;;5.45;3.47;;;;;;;17.93;94.15;96613.81;5026459;28;20096;-59
2021/06/21 01:15:20;;;;;;;4.60;3.38;;;;;;;18.04;92.80;96610.78;5023958;28;20057;-62
2021/06/21 01:17:59;;;;;;;4.13;3.50;;;;;;;17.98;94.03;96607.72;5025941;28;20176;-62
2021/06/21 01:20:49;;;;;;;5.10;3.75;;;;;;;17.99;94.62;96611.28;5025446;28;20568;-59
2021/06/21 01:23:42;;;;;;;6.07;3.55;;;;;;;17.82;94.82;96612.41;5026144;28;20397;-59
2021/06/21 01:26:20;;;;;;;5.03;3.67;;;;;;;17.83;95.31;96653.25;5007346;28;20836;-59
2021/06/21 01:29:19;;;;;;;11.48;4.53;;;;;;;17.79;95.97;96602.06;5025672;28;20065;-60
2021/06/21 01:31:54;;;;;;;10.63;3.42;;;;;;;17.79;96.04;96600.06;5005762;28;20197;-60
2021/06/21 01:34:23;;;;;;;4.68;4.03;;;;;;;17.78;96.25;96600.50;5004265;28;20034;-61
2021/06/21 01:36:52;;;;;;;5.95;3.47;;;;;;;17.93;93.71;96611.00;5005548;28;20545;-63
2021/06/21 01:39:19;;;;;;;9.52;3.85;;;;;;;17.81;94.52;96599.63;5005772;28;20083;-60
2021/06/21 01:41:45;;;;;;;3.80;3.42;;;;;;;17.30;94.99;96513.31;5005279;28;20121;-59
2021/06/21 01:44:13;;;;;;;5.95;3.83;;;;;;;17.91;94.90;96595.81;5006336;28;20494;-59
2021/06/21 01:46:40;;;;;;;5.43;3.78;;;;;;;17.91;95.47;96595.81;5005512;28;20037;-60
2021/06/21 01:49:10;;;;;;;9.65;4.10;;;;;;;17.92;95.50;96594.63;5004346;28;20124;-62
2021/06/21 01:51:37;;;;;;;5.88;3.95;;;;;;;17.93;95.29;96597.00;5005551;28;20455;-60
2021/06/21 01:54:06;;;;;;;6.43;3.90;;;;;;;17.95;95.76;96596.56;5005335;28;20037;-60
2021/06/21 01:56:37;;;;;;;7.05;3.30;;;;;;;17.98;95.11;96599.31;5004842;28;20037;-59
2021/06/21 01:59:06;;;;;;;8.98;3.80;;;;;;;17.86;95.81;96594.31;5003586;28;20057;-60
2021/06/21 02:01:32;;;;;;;7.40;3.92;;;;;;;17.83;95.94;96574.78;4987058;28;20042;-60
2021/06/21 02:04:00;;;;;;;3.67;3.25;;;;;;;17.92;95.96;96586.22;5005330;28;20049;-62
2021/06/21 02:06:28;;;;;;;4.32;3.92;;;;;;;18.06;93.65;96602.75;5004332;28;20033;-60
2021/06/21 02:08:55;;;;;;;4.88;3.53;;;;;;;18.13;93.46;96588.59;5005364;28;20032;-60
2021/06/21 02:11:24;;;;;;;5.15;3.65;;;;;;;18.14;93.90;96590.19;5004811;28;20033;-58
2021/06/21 02:13:51;;;;;;;4.80;3.33;;;;;;;18.21;93.34;96578.03;5004904;28;20123;-58
2021/06/21 02:16:17;;;;;;;12.27;5.38;;;;;;;18.17;92.89;96582.91;5002918;28;20092;-58
2021/06/21 02:18:46;;;;;;;10.13;4.18;;;;;;;18.15;93.72;96580.53;5003270;28;20477;-59
2021/06/21 02:21:12;;;;;;;6.50;3.65;;;;;;;18.09;93.98;96571.06;5002671;28;20421;-59
2021/06/21 02:23:39;;;;;;;5.13;4.03;;;;;;;17.82;93.90;96556.38;5004869;28;20551;-59
2021/06/21 02:26:06;;;;;;;7.28;4.38;;;;;;;17.98;94.50;96560.06;5003202;28;20481;-59
2021/06/21 02:28:32;;;;;;;6.70;4.03;;;;;;;17.99;94.82;96560.84;5005300;28;20038;-60
2021/06/21 02:30:59;;;;;;;6.15;3.72;;;;;;;17.95;94.78;96560.13;5018671;28;20205;-60
2021/06/21 02:33:25;;;;;;;8.82;4.07;;;;;;;17.90;94.82;96569.03;5024795;28;20490;-59
2021/06/21 02:35:52;;;;;;;8.10;4.15;;;;;;;18.04;93.95;96557.53;5024276;28;20139;-61
2021/06/21 02:38:17;;;;;;;12.65;3.70;;;;;;;18.08;92.85;96570.25;5024496;28;20037;-60
2021/06/21 02:40:43;;;;;;;5.78;5.18;;;;;;;17.74;93.95;96521.31;5024148;28;20114;-60
2021/06/21 02:43:09;;;;;;;14.52;12.82;;;;;;;17.95;94.78;96577.75;5024466;28;20042;-60
2021/06/21 02:45:34;;;;;;;22.38;16.95;;;;;;;17.58;94.28;96521.22;5023855;28;20504;-59
2021/06/21 02:48:05;;;;;;;25.83;19.33;;;;;;;17.94;94.81;96578.19;5005827;28;20497;-60
2021/06/21 02:50:32;;;;;;;18.98;16.60;;;;;;;18.03;95.37;96584.00;5023859;28;20034;-62
2021/06/21 02:53:35;;;;;;;14.15;11.52;;;;;;;18.02;95.74;96599.22;5023994;28;20067;-61
2021/06/21 02:56:07;;;;;;;12.38;6.70;;;;;;;18.16;94.07;96592.56;5024255;28;20051;-59
2021/06/21 02:58:39;;;;;;;10.60;6.53;;;;;;;17.94;93.29;96545.31;5022943;28;20048;-62
2021/06/21 03:01:06;;;;;;;11.73;7.85;;;;;;;17.14;97.89;96550.38;5023895;28;20570;-59
2021/06/21 03:03:36;;;;;;;8.32;7.03;;;;;;;17.64;98.94;96611.94;5024031;28;20060;-59
2021/06/21 03:06:02;;;;;;;9.23;7.15;;;;;;;17.82;97.56;96613.22;5023815;28;20033;-59
2021/06/21 03:08:29;;;;;;;11.43;5.70;;;;;;;17.92;96.79;96631.06;5024004;28;20042;-62
2021/06/21 03:10:57;;;;;;;9.98;5.93;;;;;;;18.02;95.61;96632.84;5005564;28;20056;-59
2021/06/21 03:13:25;;;;;;;8.95;5.47;;;;;;;18.13;95.38;96633.44;5006082;28;20095;-58
2021/06/21 03:15:52;;;;;;;6.95;4.57;;;;;;;17.79;95.71;96590.84;5005580;28;20531;-61
2021/06/21 03:18:20;;;;;;;5.78;5.03;;;;;;;18.17;95.47;96617.34;5022993;28;20032;-58
2021/06/21 03:20:50;;;;;;;7.13;4.50;;;;;;;18.35;93.02;96623.41;5004870;28;20463;-58
2021/06/21 03:23:16;;;;;;;5.53;4.13;;;;;;;18.34;92.72;96615.41;5023630;28;20132;-57
2021/06/21 03:25:41;;;;;;;10.38;5.90;;;;;;;18.44;91.51;96604.03;5023642;28;20061;-58
2021/06/21 03:28:12;;;;;;;5.82;3.90;;;;;;;18.49;92.97;96623.16;5023851;28;20029;-57
2021/06/21 03:30:51;;;;;;;4.10;3.38;;;;;;;18.57;92.75;96629.41;5022899;28;20049;-60
2021/06/21 03:33:16;;;;;;;4.28;3.33;;;;;;;18.59;92.06;96633.34;5023537;28;20033;-58
2021/06/21 03:35:42;;;;;;;6.18;3.67;;;;;;;18.68;91.99;96642.00;5023068;28;20107;-59
2021/06/21 03:38:19;;;;;;;6.50;3.72;;;;;;;18.72;92.42;96628.66;5023576;28;20045;-59
2021/06/21 03:40:45;;;;;;;3.80;3.45;;;;;;;18.45;92.95;96593.56;5005058;28;20040;-59
2021/06/21 03:43:18;;;;;;;12.43;4.57;;;;;;;18.64;93.09;96618.81;5023432;28;20383;-60
2021/06/21 03:45:45;;;;;;;8.77;4.00;;;;;;;18.00;93.36;96523.19;5004948;28;20034;-58
2021/06/21 03:48:10;;;;;;;11.18;4.43;;;;;;;18.73;92.17;96627.44;5005735;28;20129;-61
2021/06/21 03:50:36;;;;;;;5.53;4.05;;;;;;;18.21;93.24;96556.38;5023395;28;20116;-57
2021/06/21 03:53:03;;;;;;;10.60;4.32;;;;;;;18.43;92.07;96596.03;5005742;28;20124;-59
2021/06/21 03:55:28;;;;;;;8.38;3.72;;;;;;;18.88;91.44;96628.72;5005034;28;20040;-58
2021/06/21 03:57:55;;;;;;;5.00;3.40;;;;;;;18.77;90.69;96588.06;5023653;28;20045;-58
2021/06/21 04:00:23;;;;;;;5.07;3.78;;;;;;;19.16;89.91;96628.06;5021257;28;20039;-58
2021/06/21 04:02:49;;;;;;;7.47;3.75;;;;;;;19.02;90.01;96617.16;5023504;28;20389;-58
2021/06/21 04:05:15;;;;;;;4.72;3.83;;;;;;;18.90;89.85;96575.75;5023156;28;20424;-58
2021/06/21 04:07:42;;;;;;;4.68;3.80;;;;;;;19.36;89.95;96626.00;5023203;28;20042;-58
2021/06/21 04:10:11;;;;;;;8.88;4.53;;;;;;;17.35;88.88;96280.44;5023398;28;20029;-58
2021/06/21 04:12:37;;;;;;;11.10;5.53;;;;;;;19.40;87.80;96576.16;5023184;28;20554;-57
2021/06/21 04:15:08;;;;;;;8.18;4.50;;;;;;;19.91;86.70;96621.44;5023289;28;20513;-58
2021/06/21 04:17:34;;;;;;;10.23;4.50;;;;;;;19.60;85.44;96572.47;5023299;28;20037;-58
2021/06/21 04:20:00;;;;;;;4.82;3.65;;;;;;;19.93;85.91;96621.78;5023288;28;20144;-61
2021/06/21 04:22:27;;;;;;;8.57;4.40;;;;;;;20.15;85.06;96620.00;5023008;28;20041;-58
2021/06/21 04:24:52;;;;;;;1.00;1.00;;;;;;;20.26;84.76;96628.94;5005420;28;20072;-61
2021/06/21 04:27:17;;;;;;;0.80;0.80;;;;;;;20.44;83.92;96620.78;5022645;28;20860;-60
2021/06/21 04:29:43;;;;;;;7.05;3.78;;;;;;;20.56;83.85;96614.44;5024979;28;20061;-59
2021/06/21 04:32:08;;;;;;;4.82;3.45;;;;;;;20.72;82.69;96628.44;5026536;28;20049;-58
2021/06/21 04:34:34;;;;;;;8.38;4.35;;;;;;;20.64;83.15;96618.63;5026426;28;20033;-59
2021/06/21 04:37:00;;;;;;;7.55;4.53;;;;;;;19.90;84.94;96591.75;5026124;28;20056;-59
2021/06/21 04:39:25;;;;;;;10.98;5.68;;;;;;;19.83;88.29;96642.53;5026744;28;20037;-59
2021/06/21 04:41:51;;;;;;;8.45;5.63;;;;;;;19.62;86.90;96553.16;5026348;28;20042;-58
2021/06/21 04:44:16;;;;;;;10.20;5.70;;;;;;;20.20;86.68;96634.31;5026544;28;20045;-58
2021/06/21 04:46:42;;;;;;;7.93;4.72;;;;;;;20.29;84.26;96605.56;5026184;28;20087;-59
2021/06/21 04:49:12;;;;;;;6.38;4.85;;;;;;;20.76;82.67;96635.53;5026250;28;20484;-58
2021/06/21 04:51:39;;;;;;;10.50;5.20;;;;;;;21.14;81.64;96634.81;5007547;28;20087;-58
2021/06/21 04:54:05;;;;;;;6.60;5.22;;;;;;;21.48;80.96;96630.09;5026122;28;20144;-59
2021/06/21 04:56:30;;;;;;;7.93;5.38;;;;;;;21.05;80.99;96579.19;5025950;28;20052;-58
2021/06/21 04:58:56;;;;;;;7.18;4.63;;;;;;;20.65;85.09;96635.06;5008252;28;20034;-57
2021/06/21 05:01:21;;;;;;;7.57;4.68;;;;;;;20.79;85.58;96645.09;5007595;28;20033;-59
2021/06/21 05:03:47;;;;;;;6.63;4.57;;;;;;;21.48;82.04;96649.81;5025988;28;20029;-58
2021/06/21 05:06:12;;;;;;;5.97;4.70;;;;;;;21.64;79.58;96606.66;5026027;28;20036;-58
2021/06/21 05:08:38;;;;;;;6.85;4.68;;;;;;;22.08;78.64;96642.22;5025863;28;20108;-60
2021/06/21 05:11:03;;;;;;;10.93;5.80;;;;;;;21.95;78.12;96594.31;5007317;28;20148;-58
2021/06/21 05:13:29;;;;;;;8.23;4.68;;;;;;;22.58;77.28;96646.91;5008177;28;20064;-58
2021/06/21 05:15:54;;;;;;;8.73;5.10;;;;;;;22.18;77.17;96641.84;5025774;28;20033;-57
2021/06/21 05:18:20;;;;;;;7.30;5.50;;;;;;;21.74;78.27;96589.38;5007876;28;20496;-60
2021/06/21 05:20:45;;;;;;;9.65;6.00;;;;;;;22.08;79.74;96654.28;5025290;28;20037;-58
2021/06/21 05:23:11;;;;;;;5.57;4.85;;;;;;;21.97;78.32;96659.50;5025996;28;20095;-62
2021/06/21 05:25:36;;;;;;;7.07;5.10;;;;;;;22.03;79.14;96651.28;5007149;28;20025;-60
2021/06/21 05:28:03;;;;;;;8.80;4.90;;;;;;;22.52;77.39;96651.59;5025918;28;20029;-59
2021/06/21 05:30:29;;;;;;;5.53;5.03;;;;;;;22.90;74.83;96646.53;5024790;28;20495;-58
2021/06/21 05:32:54;;;;;;;6.85;4.97;;;;;;;23.25;71.68;96650.84;5025766;28;20033;-58
2021/06/21 05:35:20;;;;;;;5.78;4.57;;;;;;;22.97;70.76;96589.78;5024781;28;20496;-58
2021/06/21 05:37:47;;;;;;;4.55;4.00;;;;;;;23.15;70.02;96641.50;5025113;28;20076;-60
2021/06/21 05:40:14;;;;;;;7.20;6.50;;;;;;;23.23;69.74;96642.03;5024170;28;20025;-59
2021/06/21 05:42:39;;;;;;;9.25;5.55;;;;;;;23.11;70.68;96617.47;5025348;28;20045;-59
2021/06/21 05:45:06;;;;;;;7.63;4.90;;;;;;;23.21;71.22;96644.50;5025069;28;20472;-58
2021/06/21 05:47:31;;;;;;;5.80;4.78;;;;;;;23.02;70.95;96645.66;5024839;28;20110;-58
2021/06/21 05:49:56;;;;;;;6.53;4.00;;;;;;;23.14;70.47;96639.91;5025278;28;20607;-60
2021/06/21 05:52:22;;;;;;;7.55;4.45;;;;;;;23.11;71.06;96646.50;5006066;28;20478;-59
2021/06/21 05:54:48;;;;;;;5.68;4.63;;;;;;;22.52;69.11;96558.41;5021511;28;20087;-60
2021/06/21 05:57:13;;;;;;;5.60;5.03;;;;;;;22.55;69.83;96543.38;5023267;28;20455;-68
2021/06/21 05:59:39;;;;;;;6.75;5.72;;;;;;;23.53;68.83;96644.06;5023784;28;20121;-63
2021/06/21 06:02:04;;;;;;;10.63;5.20;;;;;;;23.25;70.32;96636.69;5005254;28;20038;-56
2021/06/21 06:04:30;;;;;;;7.45;5.60;;;;;;;23.19;70.01;96616.72;5023956;28;20025;-66
2021/06/21 06:06:55;;;;;;;7.97;4.80;;;;;;;22.68;70.65;96640.09;5022717;28;20115;-58
2021/06/21 06:09:21;;;;;;;6.75;5.35;;;;;;;23.02;69.38;96640.00;5022204;28;20391;-67
2021/06/21 06:11:48;;;;;;;5.53;4.68;;;;;;;23.16;67.79;96608.38;5021772;28;20103;-63
2021/06/21 06:14:14;;;;;;;4.75;4.30;;;;;;;23.49;67.21;96637.78;5023781;28;20036;-62
2021/06/21 06:16:39;;;;;;;7.22;6.53;;;;;;;23.52;67.48;96634.03;5024068;28;20397;-67
2021/06/21 06:19:04;;;;;;;5.35;4.85;;;;;;;23.70;65.84;96614.28;5005819;28;20067;-69
2021/06/21 06:21:30;;;;;;;5.55;5.03;;;;;;;23.85;65.94;96677.53;5023430;28;20048;-69
2021/06/21 06:23:59;;;;;;;6.28;4.63;;;;;;;23.61;66.62;96600.13;5021872;28;20030;-69
2021/06/21 06:26:24;;;;;;;5.63;5.20;;;;;;;24.01;66.34;96632.00;5024121;28;20037;-67
2021/06/21 06:28:50;;;;;;;5.50;4.47;;;;;;;23.93;66.43;96576.94;5023580;28;20037;-65
2021/06/21 06:31:15;;;;;;;6.22;4.57;;;;;;;24.52;64.53;96640.69;5024861;28;20056;-65
2021/06/21 06:33:40;;;;;;;6.25;4.38;;;;;;;24.32;64.30;96627.00;5007434;28;20037;-65
2021/06/21 06:36:06;;;;;;;4.70;4.30;;;;;;;24.47;64.35;96644.94;5005810;28;20028;-61
2021/06/21 06:38:33;;;;;;;10.45;7.60;;;;;;;24.67;62.54;96636.81;5034697;28;20037;-62
2021/06/21 06:41:01;;;;;;;4.80;4.40;;;;;;;24.83;62.33;96605.28;5012027;28;20435;-67
2021/06/21 06:43:26;;;;;;;7.18;4.05;;;;;;;24.70;60.73;96623.72;5006204;28;20124;-59
2021/06/21 06:45:52;;;;;;;4.75;4.35;;;;;;;24.67;60.93;96608.47;5024485;28;20179;-59
2021/06/21 06:48:18;;;;;;;3.97;3.67;;;;;;;24.40;62.13;96625.44;5024848;28;20034;-60
2021/06/21 06:50:43;;;;;;;4.90;4.35;;;;;;;24.21;62.15;96555.91;5022747;28;20036;-64
2021/06/21 06:53:09;;;;;;;5.65;5.15;;;;;;;24.94;62.91;96605.56;5034656;28;20041;-59
2021/06/21 06:58:18;;;;;;;6.70;3.90;;;;;;;24.98;59.43;96594.88;5034597;28;20167;-59
2021/06/21 07:00:43;;;;;;;3.65;3.35;;;;;;;24.96;59.08;96591.72;5033694;28;20514;-58
2021/06/21 07:03:10;;;;;;;3.60;3.30;;;;;;;24.46;61.17;96589.56;5016124;28;20086;-62
2021/06/21 07:05:36;;;;;;;3.90;3.60;;;;;;;24.74;61.05;96605.31;5033802;28;20033;-58
2021/06/21 07:08:02;;;;;;;4.65;3.60;;;;;;;24.51;61.18;96571.94;5033505;28;20040;-62
2021/06/21 07:10:29;;;;;;;3.88;3.58;;;;;;;24.98;60.64;96606.22;5030915;28;20127;-60
2021/06/21 07:12:56;;;;;;;4.20;3.90;;;;;;;24.57;59.16;96496.41;5031174;28;20041;-59
2021/06/21 07:15:22;;;;;;;4.72;3.78;;;;;;;25.27;59.45;96606.44;5023582;28;20586;-60
2021/06/21 07:17:47;;;;;;;4.15;3.85;;;;;;;24.47;60.31;96548.66;5023727;28;20128;-68
2021/06/21 07:20:13;;;;;;;4.20;3.80;;;;;;;25.10;59.13;96613.72;5035254;28;20087;-69
2021/06/21 07:22:38;;;;;;;4.05;3.53;;;;;;;25.24;58.19;96595.28;5026751;28;20868;-60
2021/06/21 07:25:06;;;;;;;3.90;3.70;;;;;;;25.24;57.62;96581.84;5030424;28;20036;-64
2021/06/21 07:27:31;;;;;;;4.28;3.88;;;;;;;25.41;58.54;96601.38;5009351;28;20049;-61
2021/06/21 07:29:57;;;;;;;4.60;4.10;;;;;;;25.15;58.90;96564.88;5024361;28;20046;-63
2021/06/21 07:32:22;;;;;;;4.32;3.92;;;;;;;24.68;58.32;96485.38;5007207;28;20046;-67
2021/06/21 07:34:49;;;;;;;4.07;3.78;;;;;;;25.18;57.17;96534.81;5043338;28;20029;-58
2021/06/21 07:37:14;;;;;;;3.80;3.60;;;;;;;25.27;57.39;96544.06;5028138;28;20463;-71
2021/06/21 07:39:40;;;;;;;4.00;3.70;;;;;;;25.69;55.97;96569.56;5022661;28;20033;-66
2021/06/21 07:42:06;;;;;;;4.35;3.83;;;;;;;25.93;56.96;96606.47;5022931;28;20033;-67
2021/06/21 07:44:31;;;;;;;3.90;3.60;;;;;;;25.78;55.66;96548.88;5037188;28;20036;-65
2021/06/21 07:46:57;;;;;;;4.40;4.10;;;;;;;25.51;56.14;96495.91;5027269;28;20506;-65
2021/06/21 07:49:22;;;;;;;4.38;3.97;;;;;;;26.51;55.38;96595.34;5032901;28;20026;-61
2021/06/21 07:51:48;;;;;;;6.80;5.50;;;;;;;26.64;54.34;96593.06;5029162;28;20874;-68
2021/06/21 07:54:14;;;;;;;8.63;5.95;;;;;;;27.07;54.27;96609.38;5005542;28;20033;-68
2021/06/21 07:56:40;;;;;;;6.22;4.00;;;;;;;27.18;52.95;96603.88;5027959;28;20041;-61
2021/06/21 07:59:05;;;;;;;4.47;4.10;;;;;;;27.11;52.91;96598.56;5023938;28;20026;-66
2021/06/21 08:01:31;;;;;;;4.00;3.63;;;;;;;26.85;52.56;96574.84;5031681;28;20047;-60
2021/06/21 08:03:57;;;;;;;4.20;3.90;;;;;;;27.14;52.15;96591.91;5014004;28;20033;-60
2021/06/21 08:06:25;;;;;;;4.32;3.95;;;;;;;26.61;52.30;96542.84;5025849;28;20483;-67
2021/06/21 08:08:51;;;;;;;4.60;4.20;;;;;;;26.43;52.69;96577.13;5038200;28;20471;-66
2021/06/21 08:11:17;;;;;;;4.47;4.18;;;;;;;25.21;54.29;96398.53;5029454;28;20028;-64
2021/06/21 08:13:42;;;;;;;5.28;4.30;;;;;;;26.73;53.68;96592.19;5033692;28;20068;-58
2021/06/21 08:16:08;;;;;;;4.30;3.80;;;;;;;26.31;53.21;96533.50;5023972;28;20030;-66
2021/06/21 08:18:34;;;;;;;4.40;4.10;;;;;;;27.18;51.47;96598.19;5008442;28;20091;-67
2021/06/21 08:21:00;;;;;;;4.00;3.40;;;;;;;27.44;51.19;96604.09;5040370;28;20044;-67
2021/06/21 08:23:26;;;;;;;3.92;3.63;;;;;;;27.34;51.00;96566.44;5011381;28;20030;-58
2021/06/21 08:25:51;;;;;;;4.55;4.15;;;;;;;28.02;50.50;96575.50;5025633;28;20029;-69
2021/06/21 08:28:17;;;;;;;5.63;5.05;;;;;;;27.93;48.92;96473.88;5027144;28;20033;-64
2021/06/21 08:30:45;;;;;;;4.95;3.90;;;;;;;29.39;46.70;96601.19;5026578;28;20057;-67
2021/06/21 08:33:11;;;;;;;5.40;4.32;;;;;;;29.64;46.00;96600.38;5039830;28;20037;-68
2021/06/21 08:35:37;;;;;;;4.07;3.67;;;;;;;30.06;44.64;96608.22;5046406;28;20028;-68
2021/06/21 08:38:04;;;;;;;3.90;3.70;;;;;;;30.08;43.32;96532.09;5038398;28;20052;-65
2021/06/21 08:40:31;;;;;;;4.00;3.70;;;;;;;30.57;42.36;96554.44;5042574;28;20033;-66
2021/06/21 08:42:58;;;;;;;4.13;3.83;;;;;;;31.40;41.42;96602.53;5020281;28;20053;-60
2021/06/21 08:45:24;;;;;;;5.72;4.13;;;;;;;30.24;40.35;96424.94;5036496;28;20386;-61
2021/06/21 08:47:51;;;;;;;4.20;3.90;;;;;;;31.40;40.49;96602.53;5044418;28;20041;-58
2021/06/21 08:50:17;;;;;;;6.38;4.78;;;;;;;30.79;41.31;96550.91;5009985;28;20033;-59
2021/06/21 08:52:44;;;;;;;5.18;4.88;;;;;;;31.24;41.28;96598.31;5037526;28;20043;-69
2021/06/21 08:55:12;;;;;;;5.05;4.50;;;;;;;30.65;41.26;96597.63;5032020;28;20044;-61
2021/06/21 08:57:40;;;;;;;4.03;3.72;;;;;;;31.43;41.01;96595.75;5021609;28;20124;-68
2021/06/21 09:00:09;;;;;;;4.35;4.05;;;;;;;32.19;38.19;96568.34;5025509;28;20061;-61
2021/06/21 09:02:35;;;;;;;5.05;4.65;;;;;;;32.23;36.57;96557.41;5025812;28;20045;-59
2021/06/21 09:05:04;;;;;;;5.10;4.65;;;;;;;31.78;39.79;96604.59;5026418;28;20065;-60
2021/06/21 09:07:30;;;;;;;12.27;6.78;;;;;;;31.85;39.35;96601.25;5029301;28;20507;-63
2021/06/21 09:09:57;;;;;;;4.15;3.75;;;;;;;29.93;41.38;96593.59;5032755;28;20048;-60
2021/06/21 09:12:24;;;;;;;3.70;3.40;;;;;;;29.93;41.77;96611.50;5013300;28;20076;-65
2021/06/21 09:14:51;;;;;;;4.10;3.80;;;;;;;30.61;39.90;96612.19;5024319;28;20120;-66
2021/06/21 09:17:21;;;;;;;4.57;4.20;;;;;;;30.82;40.95;96579.25;5007160;28;20029;-64
2021/06/21 09:19:52;;;;;;;4.63;3.58;;;;;;;29.97;39.00;96337.78;5024765;28;20041;-60
2021/06/21 09:22:31;;;;;;;4.28;3.97;;;;;;;31.82;nan;96603.03;5026405;28;20030;-69
2021/06/21 09:25:01;;;;;;;3.90;3.70;;;;;;;31.70;38.48;96597.84;5033070;28;20039;-67
2021/06/21 09:27:27;;;;;;;4.20;3.90;;;;;;;31.61;37.42;96586.66;5031466;28;20439;-61
2021/06/21 09:29:54;;;;;;;3.63;3.42;;;;;;;30.57;38.95;96614.47;5026363;28;20049;-60
2021/06/21 09:32:20;;;;;;;4.72;4.25;;;;;;;29.99;40.70;96615.19;5043153;28;20037;-64
2021/06/21 09:34:47;;;;;;;4.13;3.83;;;;;;;28.69;43.86;96614.22;5044221;28;20492;-59
2021/06/21 09:37:16;;;;;;;4.72;3.75;;;;;;;28.02;43.95;96621.06;5034595;28;20041;-65
2021/06/21 09:39:44;;;;;;;4.35;3.95;;;;;;;28.94;42.74;96619.16;5041468;28;20037;-60
2021/06/21 09:42:11;;;;;;;4.20;3.88;;;;;;;29.42;41.76;96620.16;5033626;28;20048;-68
2021/06/21 09:44:46;;;;;;;4.43;3.60;;;;;;;28.80;41.90;96521.00;5025156;28;20544;-65
2021/06/21 09:47:17;;;;;;;4.00;3.70;;;;;;;29.08;42.36;96621.94;5043191;28;20086;-62
2021/06/21 09:50:22;;;;;;;4.13;3.83;;;;;;;29.54;42.28;96619.00;5034030;28;20120;-64
2021/06/21 09:53:03;;;;;;;3.88;3.58;;;;;;;29.76;41.87;96618.41;5014369;28;20033;-61
2021/06/21 09:55:38;;;;;;;3.60;3.38;;;;;;;30.15;42.25;96614.50;5020870;28;20037;-68
2021/06/21 09:58:13;;;;;;;4.43;4.10;;;;;;;30.08;41.36;96606.41;5029255;28;20514;-68
2021/06/21 10:00:40;;;;;;;4.07;3.75;;;;;;;30.54;41.27;96618.38;5011454;28;20071;-64
2021/06/21 10:03:10;;;;;;;4.57;4.28;;;;;;;30.54;41.31;96586.91;5037544;28;20101;-62
2021/06/21 10:05:39;;;;;;;4.10;3.75;;;;;;;30.68;40.40;96623.09;5025889;28;20044;-66
2021/06/21 10:08:05;;;;;;;5.18;3.78;;;;;;;30.20;41.06;96599.47;5006191;28;20033;-68
2021/06/21 10:10:33;;;;;;;3.80;3.50;;;;;;;30.38;40.55;96596.22;5028462;28;20037;-62
2021/06/21 10:12:59;;;;;;;3.85;3.60;;;;;;;30.68;40.66;96620.25;5023167;28;20070;-64
2021/06/21 10:15:24;;;;;;;4.20;3.80;;;;;;;30.49;40.26;96607.69;5024529;28;20038;-68
2021/06/21 10:17:50;;;;;;;4.03;3.63;;;;;;;29.88;40.36;96557.19;5025045;28;20037;-66
2021/06/21 10:20:16;;;;;;;4.45;3.83;;;;;;;30.09;40.72;96624.34;5024257;28;20095;-61
2021/06/21 10:22:42;;;;;;;4.50;4.18;;;;;;;29.91;40.28;96619.81;5025115;28;20037;-69
2021/06/21 10:25:10;;;;;;;4.05;3.75;;;;;;;29.85;42.30;96621.84;5024641;28;20040;-69
2021/06/21 10:27:43;;;;;;;3.78;3.53;;;;;;;30.02;40.42;96608.44;5024598;28;20038;-60
2021/06/21 10:30:11;;;;;;;3.97;3.58;;;;;;;30.11;40.52;96616.84;5023984;28;20128;-59
2021/06/21 10:32:37;;;;;;;3.83;3.55;;;;;;;30.50;40.23;96615.00;5023543;28;20036;-67
2021/06/21 10:35:03;;;;;;;4.18;3.90;;;;;;;30.04;40.29;96602.22;5006600;28;20033;-68
2021/06/21 10:37:30;;;;;;;4.10;3.88;;;;;;;30.02;40.60;96611.31;5024207;28;20037;-69
2021/06/21 10:40:02;;;;;;;4.38;4.07;;;;;;;30.10;40.13;96528.78;5018033;28;20052;-67
2021/06/21 10:42:35;;;;;;;3.58;3.38;;;;;;;30.09;40.10;96613.69;5016904;28;20112;-63
2021/06/21 10:45:02;;;;;;;4.57;4.18;;;;;;;30.97;39.83;96601.16;5024415;28;20512;-60
2021/06/21 10:47:42;;;;;;;4.43;4.07;;;;;;;28.81;40.88;96362.09;5037757;28;20116;-59
2021/06/21 10:50:17;;;;;;;4.38;3.65;;;;;;;30.85;39.51;96601.13;5024212;28;20120;-68
2021/06/21 10:52:47;;;;;;;3.80;3.50;;;;;;;30.86;38.46;96602.66;5022991;28;20057;-61
2021/06/21 10:55:25;;;;;;;3.50;3.30;;;;;;;31.24;38.34;96598.31;5023875;28;20037;-68
2021/06/21 10:57:55;;;;;;;5.43;4.00;;;;;;;29.79;36.98;96443.97;5024665;28;20041;-64
2021/06/21 11:00:29;;;;;;;5.25;4.85;;;;;;;31.28;36.82;96521.56;5019470;28;20175;-69
2021/06/21 11:02:55;;;;;;;4.05;3.70;;;;;;;31.57;37.06;96551.78;5036334;28;20041;-60
2021/06/21 11:05:43;;;;;;;4.20;4.00;;;;;;;30.91;38.31;96521.78;5039972;28;20037;-60
2021/06/21 11:08:23;;;;;;;4.35;3.97;;;;;;;31.70;37.79;96590.03;5027887;28;20045;-59
2021/06/21 11:10:52;;;;;;;4.32;4.03;;;;;;;31.21;38.34;96602.22;5029745;28;20078;-59
2021/06/21 11:13:33;;;;;;;3.75;3.55;;;;;;;30.92;38.71;96588.38;5040071;28;20029;-69
2021/06/21 11:16:20;;;;;;;3.90;3.70;;;;;;;30.79;38.38;96517.34;5028336;28;20049;-63
2021/06/21 11:19:21;;;;;;;4.90;4.22;;;;;;;31.18;38.92;96582.44;5024360;28;20445;-62
2021/06/21 11:21:50;;;;;;;3.53;3.33;;;;;;;30.13;38.10;96477.06;5023014;28;20080;-61
2021/06/21 11:24:43;;;;;;;3.58;3.38;;;;;;;30.23;39.82;96594.84;5023476;28;20115;-66
2021/06/21 11:27:24;;;;;;;3.88;3.67;;;;;;;30.51;37.92;96593.66;5023285;28;20041;-63
2021/06/21 11:29:57;;;;;;;3.67;3.45;;;;;;;30.46;37.86;96594.41;5039296;28;20060;-69
2021/06/21 11:32:24;;;;;;;4.60;4.20;;;;;;;30.23;37.25;96549.91;5025381;28;20041;-67
2021/06/21 11:35:01;;;;;;;3.78;3.47;;;;;;;30.07;37.70;96502.00;5008100;28;20037;-68
2021/06/21 11:37:40;;;;;;;4.95;4.50;;;;;;;30.09;39.46;96601.47;5022710;28;20057;-61
2021/06/21 11:40:15;;;;;;;4.30;3.90;;;;;;;30.90;37.97;96586.03;5030351;28;20037;-68